sensor_id;sensor_type;location;lat;lon;timestamp;temperature;humidity
17483;DHT22;8858;52.308;20.994;2023-02-23T00:02:22;1.60;99.90
17483;DHT22;8858;52.308;20.994;2023-02-23T00:04:50;1.60;99.90
17483;DHT22;8858;52.308;20.994;2023-02-23T00:07:24;1.60;99.90
17483;DHT22;8858;52.308;20.994;2023-02-23T00:09:53;1.60;99.90
17483;DHT22;8858;52.308;20.994;2023-02-23T00:12:23;1.60;99.90
17483;DHT22;8858;52.308;20.994;2023-02-23T00:14:54;1.60;99.90
17483;DHT22;8858;52.308;20.994;2023-02-23T00:17:25;1.50;99.90
17483;DHT22;8858;52.308;20.994;2023-02-23T00:19:53;1.50;99.90
17483;DHT22;8858;52.308;20.994;2023-02-23T00:22:25;1.40;99.90
17483;DHT22;8858;52.308;20.994;2023-02-23T00:24:53;1.40;99.90
17483;DHT22;8858;52.308;20.994;2023-02-23T00:27:23;1.40;99.90
17483;DHT22;8858;52.308;20.994;2023-02-23T00:29:52;1.30;99.90
17483;DHT22;8858;52.308;20.994;2023-02-23T00:32:21;1.30;99.90
17483;DHT22;8858;52.308;20.994;2023-02-23T00:34:51;1.30;99.90
17483;DHT22;8858;52.308;20.994;2023-02-23T00:37:20;1.20;99.90
17483;DHT22;8858;52.308;20.994;2023-02-23T00:39:53;1.30;99.90
17483;DHT22;8858;52.308;20.994;2023-02-23T00:42:26;1.20;99.90
17483;DHT22;8858;52.308;20.994;2023-02-23T00:45:00;1.20;99.90
17483;DHT22;8858;52.308;20.994;2023-02-23T00:47:34;1.20;99.90
17483;DHT22;8858;52.308;20.994;2023-02-23T00:50:04;1.20;99.90
17483;DHT22;8858;52.308;20.994;2023-02-23T00:52:34;1.10;99.90
17483;DHT22;8858;52.308;20.994;2023-02-23T00:55:06;1.10;99.90
17483;DHT22;8858;52.308;20.994;2023-02-23T00:57:35;1.20;99.90
17483;DHT22;8858;52.308;20.994;2023-02-23T01:00:07;1.20;99.90
17483;DHT22;8858;52.308;20.994;2023-02-23T01:02:43;1.10;99.90
17483;DHT22;8858;52.308;20.994;2023-02-23T01:05:11;1.10;99.90
17483;DHT22;8858;52.308;20.994;2023-02-23T01:07:40;1.10;99.90
17483;DHT22;8858;52.308;20.994;2023-02-23T01:10:10;1.10;99.90
17483;DHT22;8858;52.308;20.994;2023-02-23T01:12:48;1.10;99.90
17483;DHT22;8858;52.308;20.994;2023-02-23T01:15:19;1.10;99.90
17483;DHT22;8858;52.308;20.994;2023-02-23T01:17:47;1.10;99.90
17483;DHT22;8858;52.308;20.994;2023-02-23T01:20:16;1.10;99.90
17483;DHT22;8858;52.308;20.994;2023-02-23T01:22:46;1.00;99.90
17483;DHT22;8858;52.308;20.994;2023-02-23T01:25:17;1.00;99.90
17483;DHT22;8858;52.308;20.994;2023-02-23T01:27:46;1.00;99.90
17483;DHT22;8858;52.308;20.994;2023-02-23T01:32:43;1.00;99.90
17483;DHT22;8858;52.308;20.994;2023-02-23T01:35:12;1.00;99.90
17483;DHT22;8858;52.308;20.994;2023-02-23T01:37:41;1.00;99.90
17483;DHT22;8858;52.308;20.994;2023-02-23T01:40:14;1.00;99.90
17483;DHT22;8858;52.308;20.994;2023-02-23T01:42:46;1.00;99.90
17483;DHT22;8858;52.308;20.994;2023-02-23T01:45:22;1.00;99.90
17483;DHT22;8858;52.308;20.994;2023-02-23T01:47:56;1.00;99.90
17483;DHT22;8858;52.308;20.994;2023-02-23T01:50:31;1.00;99.90
17483;DHT22;8858;52.308;20.994;2023-02-23T01:53:04;1.00;99.90
17483;DHT22;8858;52.308;20.994;2023-02-23T01:55:33;1.10;99.90
17483;DHT22;8858;52.308;20.994;2023-02-23T01:58:07;1.00;99.90
17483;DHT22;8858;52.308;20.994;2023-02-23T02:00:43;1.10;99.90
17483;DHT22;8858;52.308;20.994;2023-02-23T02:03:18;1.10;99.90
17483;DHT22;8858;52.308;20.994;2023-02-23T02:05:49;1.10;99.90
17483;DHT22;8858;52.308;20.994;2023-02-23T02:08:21;1.10;99.90
17483;DHT22;8858;52.308;20.994;2023-02-23T02:10:51;1.10;99.90
17483;DHT22;8858;52.308;20.994;2023-02-23T02:13:25;1.10;99.90
17483;DHT22;8858;52.308;20.994;2023-02-23T02:16:24;1.10;99.90
17483;DHT22;8858;52.308;20.994;2023-02-23T02:22:14;1.20;99.90
17483;DHT22;8858;52.308;20.994;2023-02-23T02:28:28;1.10;99.90
17483;DHT22;8858;52.308;20.994;2023-02-23T02:37:35;1.00;99.90
17483;DHT22;8858;52.308;20.994;2023-02-23T02:40:11;1.00;99.90
17483;DHT22;8858;52.308;20.994;2023-02-23T02:45:42;0.90;99.90
17483;DHT22;8858;52.308;20.994;2023-02-23T02:48:17;0.90;99.90
17483;DHT22;8858;52.308;20.994;2023-02-23T02:50:53;0.90;99.90
17483;DHT22;8858;52.308;20.994;2023-02-23T02:53:28;0.80;99.90
17483;DHT22;8858;52.308;20.994;2023-02-23T02:56:02;0.80;99.90
17483;DHT22;8858;52.308;20.994;2023-02-23T02:58:35;0.70;99.90
17483;DHT22;8858;52.308;20.994;2023-02-23T03:01:11;0.70;99.90
17483;DHT22;8858;52.308;20.994;2023-02-23T03:03:59;0.70;99.90
17483;DHT22;8858;52.308;20.994;2023-02-23T03:06:53;0.70;99.90
17483;DHT22;8858;52.308;20.994;2023-02-23T03:09:50;0.70;99.90
17483;DHT22;8858;52.308;20.994;2023-02-23T03:12:44;0.70;99.90
17483;DHT22;8858;52.308;20.994;2023-02-23T03:15:41;0.70;99.90
17483;DHT22;8858;52.308;20.994;2023-02-23T03:18:39;0.80;99.90
17483;DHT22;8858;52.308;20.994;2023-02-23T03:21:32;0.80;99.90
17483;DHT22;8858;52.308;20.994;2023-02-23T03:24:23;0.80;99.90
17483;DHT22;8858;52.308;20.994;2023-02-23T03:27:18;0.80;99.90
17483;DHT22;8858;52.308;20.994;2023-02-23T03:30:11;0.80;99.90
17483;DHT22;8858;52.308;20.994;2023-02-23T03:33:02;0.80;99.90
17483;DHT22;8858;52.308;20.994;2023-02-23T03:35:54;0.80;99.90
17483;DHT22;8858;52.308;20.994;2023-02-23T03:38:46;0.80;99.90
17483;DHT22;8858;52.308;20.994;2023-02-23T03:41:36;0.90;99.90
17483;DHT22;8858;52.308;20.994;2023-02-23T03:44:31;0.90;99.90
17483;DHT22;8858;52.308;20.994;2023-02-23T03:47:24;0.80;99.90
17483;DHT22;8858;52.308;20.994;2023-02-23T03:50:19;0.80;99.90
17483;DHT22;8858;52.308;20.994;2023-02-23T03:53:09;0.80;99.90
17483;DHT22;8858;52.308;20.994;2023-02-23T03:55:58;0.70;99.90
17483;DHT22;8858;52.308;20.994;2023-02-23T03:58:49;0.80;99.90
17483;DHT22;8858;52.308;20.994;2023-02-23T04:01:40;0.80;99.90
17483;DHT22;8858;52.308;20.994;2023-02-23T04:04:27;0.80;99.90
17483;DHT22;8858;52.308;20.994;2023-02-23T04:07:17;0.70;99.90
17483;DHT22;8858;52.308;20.994;2023-02-23T04:10:08;0.70;99.90
17483;DHT22;8858;52.308;20.994;2023-02-23T04:13:00;0.70;99.90
17483;DHT22;8858;52.308;20.994;2023-02-23T04:15:48;0.70;99.90
17483;DHT22;8858;52.308;20.994;2023-02-23T04:18:21;0.70;99.90
17483;DHT22;8858;52.308;20.994;2023-02-23T04:20:50;0.70;99.90
17483;DHT22;8858;52.308;20.994;2023-02-23T04:23:19;0.70;99.90
17483;DHT22;8858;52.308;20.994;2023-02-23T04:25:48;0.70;99.90
17483;DHT22;8858;52.308;20.994;2023-02-23T04:28:19;0.70;99.90
17483;DHT22;8858;52.308;20.994;2023-02-23T04:30:47;0.70;99.90
17483;DHT22;8858;52.308;20.994;2023-02-23T04:33:19;0.80;99.90
17483;DHT22;8858;52.308;20.994;2023-02-23T04:35:49;0.80;99.90
17483;DHT22;8858;52.308;20.994;2023-02-23T04:38:19;0.80;99.90
17483;DHT22;8858;52.308;20.994;2023-02-23T04:40:47;0.90;99.90
17483;DHT22;8858;52.308;20.994;2023-02-23T04:43:16;0.90;99.90
17483;DHT22;8858;52.308;20.994;2023-02-23T04:45:44;0.90;99.90
17483;DHT22;8858;52.308;20.994;2023-02-23T04:48:13;0.90;99.90
17483;DHT22;8858;52.308;20.994;2023-02-23T04:50:43;0.90;99.90
17483;DHT22;8858;52.308;20.994;2023-02-23T04:53:14;1.00;99.90
17483;DHT22;8858;52.308;20.994;2023-02-23T04:55:42;1.00;99.90
17483;DHT22;8858;52.308;20.994;2023-02-23T04:58:13;1.00;99.90
17483;DHT22;8858;52.308;20.994;2023-02-23T05:00:42;1.00;99.90
17483;DHT22;8858;52.308;20.994;2023-02-23T05:03:11;1.00;99.90
17483;DHT22;8858;52.308;20.994;2023-02-23T05:05:39;1.00;99.90
17483;DHT22;8858;52.308;20.994;2023-02-23T05:08:09;1.00;99.90
17483;DHT22;8858;52.308;20.994;2023-02-23T05:10:38;1.00;99.90
17483;DHT22;8858;52.308;20.994;2023-02-23T05:13:09;1.00;99.90
17483;DHT22;8858;52.308;20.994;2023-02-23T05:15:37;1.10;99.90
17483;DHT22;8858;52.308;20.994;2023-02-23T05:18:09;1.10;99.90
17483;DHT22;8858;52.308;20.994;2023-02-23T05:20:37;1.10;99.90
17483;DHT22;8858;52.308;20.994;2023-02-23T05:23:06;1.10;99.90
17483;DHT22;8858;52.308;20.994;2023-02-23T05:25:38;1.10;99.90
17483;DHT22;8858;52.308;20.994;2023-02-23T05:28:07;1.10;99.90
17483;DHT22;8858;52.308;20.994;2023-02-23T05:30:39;1.10;99.90
17483;DHT22;8858;52.308;20.994;2023-02-23T05:33:09;1.10;99.90
17483;DHT22;8858;52.308;20.994;2023-02-23T05:35:39;1.10;99.90
17483;DHT22;8858;52.308;20.994;2023-02-23T05:38:07;1.10;99.90
17483;DHT22;8858;52.308;20.994;2023-02-23T05:40:36;1.10;99.90
17483;DHT22;8858;52.308;20.994;2023-02-23T05:43:08;1.10;99.90
17483;DHT22;8858;52.308;20.994;2023-02-23T05:45:39;1.10;99.90
17483;DHT22;8858;52.308;20.994;2023-02-23T05:48:07;1.10;99.90
17483;DHT22;8858;52.308;20.994;2023-02-23T05:50:36;1.10;99.90
17483;DHT22;8858;52.308;20.994;2023-02-23T05:53:04;1.10;99.90
17483;DHT22;8858;52.308;20.994;2023-02-23T05:55:32;1.10;99.90
17483;DHT22;8858;52.308;20.994;2023-02-23T05:58:00;1.10;99.90
17483;DHT22;8858;52.308;20.994;2023-02-23T06:00:30;1.10;99.90
17483;DHT22;8858;52.308;20.994;2023-02-23T06:03:02;1.20;99.90
17483;DHT22;8858;52.308;20.994;2023-02-23T06:05:30;1.30;99.90
17483;DHT22;8858;52.308;20.994;2023-02-23T06:07:59;1.30;99.90
17483;DHT22;8858;52.308;20.994;2023-02-23T06:10:28;1.20;99.90
17483;DHT22;8858;52.308;20.994;2023-02-23T06:12:57;1.20;99.90
17483;DHT22;8858;52.308;20.994;2023-02-23T06:15:26;1.20;99.90
17483;DHT22;8858;52.308;20.994;2023-02-23T06:17:57;1.20;99.90
17483;DHT22;8858;52.308;20.994;2023-02-23T06:20:25;1.20;99.90
17483;DHT22;8858;52.308;20.994;2023-02-23T06:22:53;1.30;99.90
17483;DHT22;8858;52.308;20.994;2023-02-23T06:25:28;1.30;99.90
17483;DHT22;8858;52.308;20.994;2023-02-23T06:27:58;1.30;99.90
17483;DHT22;8858;52.308;20.994;2023-02-23T06:30:26;1.40;99.90
17483;DHT22;8858;52.308;20.994;2023-02-23T06:32:54;1.40;99.90
17483;DHT22;8858;52.308;20.994;2023-02-23T06:35:24;1.40;99.90
17483;DHT22;8858;52.308;20.994;2023-02-23T06:37:53;1.50;99.90
17483;DHT22;8858;52.308;20.994;2023-02-23T06:40:22;1.50;99.90
17483;DHT22;8858;52.308;20.994;2023-02-23T06:42:51;1.50;99.90
17483;DHT22;8858;52.308;20.994;2023-02-23T06:45:20;1.50;99.90
17483;DHT22;8858;52.308;20.994;2023-02-23T06:47:48;1.50;99.90
17483;DHT22;8858;52.308;20.994;2023-02-23T06:50:17;1.60;99.90
17483;DHT22;8858;52.308;20.994;2023-02-23T06:52:50;1.50;99.90
17483;DHT22;8858;52.308;20.994;2023-02-23T06:55:19;1.50;99.90
17483;DHT22;8858;52.308;20.994;2023-02-23T06:57:51;1.50;99.90
17483;DHT22;8858;52.308;20.994;2023-02-23T07:00:20;1.60;99.90
17483;DHT22;8858;52.308;20.994;2023-02-23T07:02:49;1.60;99.90
17483;DHT22;8858;52.308;20.994;2023-02-23T07:05:18;1.60;99.90
17483;DHT22;8858;52.308;20.994;2023-02-23T07:07:47;1.60;99.90
17483;DHT22;8858;52.308;20.994;2023-02-23T07:10:21;1.60;99.90
17483;DHT22;8858;52.308;20.994;2023-02-23T07:12:49;1.60;99.90
17483;DHT22;8858;52.308;20.994;2023-02-23T07:15:20;1.60;99.90
17483;DHT22;8858;52.308;20.994;2023-02-23T07:17:48;1.70;99.90
17483;DHT22;8858;52.308;20.994;2023-02-23T07:20:18;1.70;99.90
17483;DHT22;8858;52.308;20.994;2023-02-23T07:22:46;1.80;99.90
17483;DHT22;8858;52.308;20.994;2023-02-23T07:25:18;1.80;99.90
17483;DHT22;8858;52.308;20.994;2023-02-23T07:27:50;1.90;99.90
17483;DHT22;8858;52.308;20.994;2023-02-23T07:30:20;1.90;99.90
17483;DHT22;8858;52.308;20.994;2023-02-23T07:32:50;1.90;99.90
17483;DHT22;8858;52.308;20.994;2023-02-23T07:35:19;1.90;99.90
17483;DHT22;8858;52.308;20.994;2023-02-23T07:37:47;2.00;99.90
17483;DHT22;8858;52.308;20.994;2023-02-23T07:40:17;2.00;99.90
17483;DHT22;8858;52.308;20.994;2023-02-23T07:42:45;2.00;99.90
17483;DHT22;8858;52.308;20.994;2023-02-23T07:45:15;2.10;99.90
17483;DHT22;8858;52.308;20.994;2023-02-23T07:47:43;2.10;99.90
17483;DHT22;8858;52.308;20.994;2023-02-23T07:50:15;2.20;99.90
17483;DHT22;8858;52.308;20.994;2023-02-23T07:52:44;2.20;99.90
17483;DHT22;8858;52.308;20.994;2023-02-23T07:55:12;2.20;99.90
17483;DHT22;8858;52.308;20.994;2023-02-23T07:57:41;2.20;99.90
17483;DHT22;8858;52.308;20.994;2023-02-23T08:00:10;2.30;99.90
17483;DHT22;8858;52.308;20.994;2023-02-23T08:02:40;2.30;99.90
17483;DHT22;8858;52.308;20.994;2023-02-23T08:05:09;2.30;99.90
17483;DHT22;8858;52.308;20.994;2023-02-23T08:07:38;2.40;99.90
17483;DHT22;8858;52.308;20.994;2023-02-23T08:10:07;2.40;99.90
17483;DHT22;8858;52.308;20.994;2023-02-23T08:12:35;2.40;99.90
17483;DHT22;8858;52.308;20.994;2023-02-23T08:15:04;2.50;99.90
17483;DHT22;8858;52.308;20.994;2023-02-23T08:17:34;2.50;99.90
17483;DHT22;8858;52.308;20.994;2023-02-23T08:20:04;2.60;99.90
17483;DHT22;8858;52.308;20.994;2023-02-23T08:22:33;2.60;99.90
17483;DHT22;8858;52.308;20.994;2023-02-23T08:25:15;2.60;99.90
17483;DHT22;8858;52.308;20.994;2023-02-23T08:27:43;2.70;99.90
17483;DHT22;8858;52.308;20.994;2023-02-23T08:30:12;2.80;99.90
17483;DHT22;8858;52.308;20.994;2023-02-23T08:32:41;2.80;99.90
17483;DHT22;8858;52.308;20.994;2023-02-23T08:35:12;2.90;99.90
17483;DHT22;8858;52.308;20.994;2023-02-23T08:37:44;3.00;99.90
17483;DHT22;8858;52.308;20.994;2023-02-23T08:40:13;3.00;99.90
17483;DHT22;8858;52.308;20.994;2023-02-23T08:42:41;3.10;99.90
17483;DHT22;8858;52.308;20.994;2023-02-23T08:45:11;3.20;99.90
17483;DHT22;8858;52.308;20.994;2023-02-23T08:47:40;3.20;99.90
17483;DHT22;8858;52.308;20.994;2023-02-23T08:50:13;3.20;99.90
17483;DHT22;8858;52.308;20.994;2023-02-23T08:52:41;3.20;99.90
17483;DHT22;8858;52.308;20.994;2023-02-23T08:55:10;3.20;99.90
17483;DHT22;8858;52.308;20.994;2023-02-23T08:57:40;3.30;99.90
17483;DHT22;8858;52.308;20.994;2023-02-23T09:00:11;3.30;99.90
17483;DHT22;8858;52.308;20.994;2023-02-23T09:02:44;3.30;99.90
17483;DHT22;8858;52.308;20.994;2023-02-23T09:05:15;3.40;99.90
17483;DHT22;8858;52.308;20.994;2023-02-23T09:07:47;3.40;99.90
17483;DHT22;8858;52.308;20.994;2023-02-23T09:10:18;3.40;99.90
17483;DHT22;8858;52.308;20.994;2023-02-23T09:12:46;3.40;99.90
17483;DHT22;8858;52.308;20.994;2023-02-23T09:15:14;3.50;99.90
17483;DHT22;8858;52.308;20.994;2023-02-23T09:17:43;3.50;99.90
17483;DHT22;8858;52.308;20.994;2023-02-23T09:20:12;3.60;99.90
17483;DHT22;8858;52.308;20.994;2023-02-23T09:22:46;3.60;99.90
17483;DHT22;8858;52.308;20.994;2023-02-23T09:25:17;3.70;99.90
17483;DHT22;8858;52.308;20.994;2023-02-23T09:27:52;3.70;99.90
17483;DHT22;8858;52.308;20.994;2023-02-23T09:30:22;3.70;99.90
17483;DHT22;8858;52.308;20.994;2023-02-23T09:32:51;3.80;99.90
17483;DHT22;8858;52.308;20.994;2023-02-23T09:35:22;3.80;99.90
17483;DHT22;8858;52.308;20.994;2023-02-23T09:37:55;3.90;99.90
17483;DHT22;8858;52.308;20.994;2023-02-23T09:40:26;4.00;99.90
17483;DHT22;8858;52.308;20.994;2023-02-23T09:42:59;4.00;99.90
17483;DHT22;8858;52.308;20.994;2023-02-23T09:45:37;4.00;99.90
17483;DHT22;8858;52.308;20.994;2023-02-23T09:48:18;4.00;99.90
17483;DHT22;8858;52.308;20.994;2023-02-23T09:50:49;4.00;99.90
17483;DHT22;8858;52.308;20.994;2023-02-23T09:53:35;4.00;99.90
17483;DHT22;8858;52.308;20.994;2023-02-23T09:56:10;4.10;99.90
17483;DHT22;8858;52.308;20.994;2023-02-23T09:58:42;4.00;99.90
17483;DHT22;8858;52.308;20.994;2023-02-23T10:01:32;4.00;99.90
17483;DHT22;8858;52.308;20.994;2023-02-23T10:04:06;4.00;99.90
17483;DHT22;8858;52.308;20.994;2023-02-23T10:06:40;4.00;99.90
17483;DHT22;8858;52.308;20.994;2023-02-23T10:09:19;4.10;99.90
17483;DHT22;8858;52.308;20.994;2023-02-23T10:11:52;4.20;99.90
17483;DHT22;8858;52.308;20.994;2023-02-23T10:14:42;4.30;99.90
17483;DHT22;8858;52.308;20.994;2023-02-23T10:17:23;4.50;99.90
17483;DHT22;8858;52.308;20.994;2023-02-23T10:19:58;4.60;99.90
17483;DHT22;8858;52.308;20.994;2023-02-23T10:22:28;4.60;99.90
17483;DHT22;8858;52.308;20.994;2023-02-23T10:25:03;4.60;99.90
17483;DHT22;8858;52.308;20.994;2023-02-23T10:27:38;4.70;99.90
17483;DHT22;8858;52.308;20.994;2023-02-23T10:30:17;4.70;99.90
17483;DHT22;8858;52.308;20.994;2023-02-23T10:32:51;4.80;99.90
17483;DHT22;8858;52.308;20.994;2023-02-23T10:35:23;4.80;99.90
17483;DHT22;8858;52.308;20.994;2023-02-23T10:37:52;4.80;99.90
17483;DHT22;8858;52.308;20.994;2023-02-23T10:40:24;4.80;99.90
17483;DHT22;8858;52.308;20.994;2023-02-23T10:42:55;4.90;99.90
17483;DHT22;8858;52.308;20.994;2023-02-23T10:45:25;5.00;99.90
17483;DHT22;8858;52.308;20.994;2023-02-23T10:47:57;5.00;99.90
17483;DHT22;8858;52.308;20.994;2023-02-23T10:50:31;5.10;99.90
17483;DHT22;8858;52.308;20.994;2023-02-23T10:53:08;5.20;99.90
17483;DHT22;8858;52.308;20.994;2023-02-23T10:55:39;5.30;99.90
17483;DHT22;8858;52.308;20.994;2023-02-23T10:58:11;5.30;99.90
17483;DHT22;8858;52.308;20.994;2023-02-23T11:00:51;5.40;99.90
17483;DHT22;8858;52.308;20.994;2023-02-23T11:03:24;5.40;99.90
17483;DHT22;8858;52.308;20.994;2023-02-23T11:05:55;5.50;99.90
17483;DHT22;8858;52.308;20.994;2023-02-23T11:08:27;5.60;99.90
17483;DHT22;8858;52.308;20.994;2023-02-23T11:11:18;5.70;99.90
17483;DHT22;8858;52.308;20.994;2023-02-23T11:13:52;5.70;99.90
17483;DHT22;8858;52.308;20.994;2023-02-23T11:16:22;5.80;99.90
17483;DHT22;8858;52.308;20.994;2023-02-23T11:18:53;5.90;99.90
17483;DHT22;8858;52.308;20.994;2023-02-23T11:21:25;6.00;99.90
17483;DHT22;8858;52.308;20.994;2023-02-23T11:23:57;6.00;99.90
17483;DHT22;8858;52.308;20.994;2023-02-23T11:26:35;6.10;99.90
17483;DHT22;8858;52.308;20.994;2023-02-23T11:29:14;6.20;99.90
17483;DHT22;8858;52.308;20.994;2023-02-23T11:31:47;6.20;99.90
17483;DHT22;8858;52.308;20.994;2023-02-23T11:34:27;6.20;99.90
17483;DHT22;8858;52.308;20.994;2023-02-23T11:36:59;6.20;99.90
17483;DHT22;8858;52.308;20.994;2023-02-23T11:39:29;6.20;99.90
17483;DHT22;8858;52.308;20.994;2023-02-23T11:42:13;6.30;99.90
17483;DHT22;8858;52.308;20.994;2023-02-23T11:44:49;6.30;99.90
17483;DHT22;8858;52.308;20.994;2023-02-23T11:47:20;6.40;99.90
17483;DHT22;8858;52.308;20.994;2023-02-23T11:49:53;6.40;99.90
17483;DHT22;8858;52.308;20.994;2023-02-23T11:52:25;6.50;99.90
17483;DHT22;8858;52.308;20.994;2023-02-23T11:54:56;6.60;99.90
17483;DHT22;8858;52.308;20.994;2023-02-23T11:57:29;6.60;99.90
17483;DHT22;8858;52.308;20.994;2023-02-23T12:00:04;6.60;99.90
17483;DHT22;8858;52.308;20.994;2023-02-23T12:02:46;6.70;99.90
17483;DHT22;8858;52.308;20.994;2023-02-23T12:05:22;6.80;99.90
17483;DHT22;8858;52.308;20.994;2023-02-23T12:07:57;6.80;99.90
17483;DHT22;8858;52.308;20.994;2023-02-23T12:10:30;6.80;99.90
17483;DHT22;8858;52.308;20.994;2023-02-23T12:13:23;6.90;99.90
17483;DHT22;8858;52.308;20.994;2023-02-23T12:15:57;6.90;99.90
17483;DHT22;8858;52.308;20.994;2023-02-23T12:18:43;6.90;99.90
17483;DHT22;8858;52.308;20.994;2023-02-23T12:21:19;6.90;99.90
17483;DHT22;8858;52.308;20.994;2023-02-23T12:23:56;6.90;99.90
17483;DHT22;8858;52.308;20.994;2023-02-23T12:26:27;6.90;99.90
17483;DHT22;8858;52.308;20.994;2023-02-23T12:29:03;6.90;99.90
17483;DHT22;8858;52.308;20.994;2023-02-23T12:31:40;6.90;99.90
17483;DHT22;8858;52.308;20.994;2023-02-23T12:34:16;6.80;99.90
17483;DHT22;8858;52.308;20.994;2023-02-23T12:36:54;6.80;99.90
17483;DHT22;8858;52.308;20.994;2023-02-23T12:39:27;6.80;99.90
17483;DHT22;8858;52.308;20.994;2023-02-23T12:42:04;6.90;99.90
17483;DHT22;8858;52.308;20.994;2023-02-23T12:44:39;6.90;99.90
17483;DHT22;8858;52.308;20.994;2023-02-23T12:47:19;6.90;99.90
17483;DHT22;8858;52.308;20.994;2023-02-23T12:49:53;6.90;99.90
17483;DHT22;8858;52.308;20.994;2023-02-23T12:52:27;7.00;99.90
17483;DHT22;8858;52.308;20.994;2023-02-23T12:54:56;7.00;99.90
17483;DHT22;8858;52.308;20.994;2023-02-23T12:57:31;7.00;99.90
17483;DHT22;8858;52.308;20.994;2023-02-23T13:03:32;7.20;99.90
17483;DHT22;8858;52.308;20.994;2023-02-23T13:06:10;7.20;99.90
17483;DHT22;8858;52.308;20.994;2023-02-23T13:08:59;7.20;99.90
17483;DHT22;8858;52.308;20.994;2023-02-23T13:11:46;7.10;99.90
17483;DHT22;8858;52.308;20.994;2023-02-23T13:14:20;7.20;99.90
17483;DHT22;8858;52.308;20.994;2023-02-23T13:16:55;7.20;99.90
17483;DHT22;8858;52.308;20.994;2023-02-23T13:19:29;7.20;99.90
17483;DHT22;8858;52.308;20.994;2023-02-23T13:22:08;7.20;99.90
17483;DHT22;8858;52.308;20.994;2023-02-23T13:24:40;7.20;99.90
17483;DHT22;8858;52.308;20.994;2023-02-23T13:27:14;7.20;99.90
17483;DHT22;8858;52.308;20.994;2023-02-23T13:29:45;7.20;99.90
17483;DHT22;8858;52.308;20.994;2023-02-23T13:32:19;7.30;99.90
17483;DHT22;8858;52.308;20.994;2023-02-23T13:34:51;7.30;99.90
17483;DHT22;8858;52.308;20.994;2023-02-23T13:37:24;7.40;99.90
17483;DHT22;8858;52.308;20.994;2023-02-23T13:40:02;7.30;99.90
17483;DHT22;8858;52.308;20.994;2023-02-23T13:42:42;7.30;99.90
17483;DHT22;8858;52.308;20.994;2023-02-23T13:45:37;7.30;99.90
17483;DHT22;8858;52.308;20.994;2023-02-23T13:48:18;7.40;99.90
17483;DHT22;8858;52.308;20.994;2023-02-23T13:50:57;7.30;99.90
17483;DHT22;8858;52.308;20.994;2023-02-23T13:53:35;7.40;99.90
17483;DHT22;8858;52.308;20.994;2023-02-23T13:56:06;7.40;99.90
17483;DHT22;8858;52.308;20.994;2023-02-23T13:58:35;7.20;99.90
17483;DHT22;8858;52.308;20.994;2023-02-23T14:01:09;7.20;99.90
17483;DHT22;8858;52.308;20.994;2023-02-23T14:03:52;7.20;99.90
17483;DHT22;8858;52.308;20.994;2023-02-23T14:06:23;7.20;99.90
17483;DHT22;8858;52.308;20.994;2023-02-23T14:08:56;7.10;99.90
17483;DHT22;8858;52.308;20.994;2023-02-23T14:11:42;7.10;99.90
17483;DHT22;8858;52.308;20.994;2023-02-23T14:14:14;7.00;99.90
17483;DHT22;8858;52.308;20.994;2023-02-23T14:16:43;7.10;99.90
17483;DHT22;8858;52.308;20.994;2023-02-23T14:19:34;7.00;99.90
17483;DHT22;8858;52.308;20.994;2023-02-23T14:22:05;7.00;99.90
17483;DHT22;8858;52.308;20.994;2023-02-23T14:24:37;7.00;99.90
17483;DHT22;8858;52.308;20.994;2023-02-23T14:27:21;7.00;99.90
17483;DHT22;8858;52.308;20.994;2023-02-23T14:30:21;6.90;99.90
17483;DHT22;8858;52.308;20.994;2023-02-23T14:32:51;6.80;99.90
17483;DHT22;8858;52.308;20.994;2023-02-23T14:35:42;6.80;99.90
17483;DHT22;8858;52.308;20.994;2023-02-23T14:38:25;6.70;99.90
17483;DHT22;8858;52.308;20.994;2023-02-23T14:41:13;6.80;99.90
17483;DHT22;8858;52.308;20.994;2023-02-23T14:43:43;6.70;99.90
17483;DHT22;8858;52.308;20.994;2023-02-23T14:46:18;6.70;99.90
17483;DHT22;8858;52.308;20.994;2023-02-23T14:48:57;6.70;99.90
17483;DHT22;8858;52.308;20.994;2023-02-23T14:51:36;6.70;99.90
17483;DHT22;8858;52.308;20.994;2023-02-23T14:54:24;6.70;99.90
17483;DHT22;8858;52.308;20.994;2023-02-23T14:56:55;6.60;99.90
17483;DHT22;8858;52.308;20.994;2023-02-23T14:59:28;6.70;99.90
17483;DHT22;8858;52.308;20.994;2023-02-23T15:01:59;6.70;99.90
17483;DHT22;8858;52.308;20.994;2023-02-23T15:04:29;6.60;99.90
17483;DHT22;8858;52.308;20.994;2023-02-23T15:06:59;6.60;99.90
17483;DHT22;8858;52.308;20.994;2023-02-23T15:09:32;6.60;99.90
17483;DHT22;8858;52.308;20.994;2023-02-23T15:12:11;6.60;99.90
17483;DHT22;8858;52.308;20.994;2023-02-23T15:14:40;6.60;99.90
17483;DHT22;8858;52.308;20.994;2023-02-23T15:17:15;6.60;99.90
17483;DHT22;8858;52.308;20.994;2023-02-23T15:19:45;6.60;99.90
17483;DHT22;8858;52.308;20.994;2023-02-23T15:22:24;6.60;99.90
17483;DHT22;8858;52.308;20.994;2023-02-23T15:24:56;6.50;99.90
17483;DHT22;8858;52.308;20.994;2023-02-23T15:27:29;6.50;99.90
17483;DHT22;8858;52.308;20.994;2023-02-23T15:30:21;6.50;99.90
17483;DHT22;8858;52.308;20.994;2023-02-23T15:32:59;6.40;99.90
17483;DHT22;8858;52.308;20.994;2023-02-23T15:35:29;6.40;99.90
17483;DHT22;8858;52.308;20.994;2023-02-23T15:38:00;6.40;99.90
17483;DHT22;8858;52.308;20.994;2023-02-23T15:40:53;6.30;99.90
17483;DHT22;8858;52.308;20.994;2023-02-23T15:43:27;6.30;99.90
17483;DHT22;8858;52.308;20.994;2023-02-23T15:45:59;6.30;99.90
17483;DHT22;8858;52.308;20.994;2023-02-23T15:48:40;6.20;99.90
17483;DHT22;8858;52.308;20.994;2023-02-23T15:51:21;6.20;99.90
17483;DHT22;8858;52.308;20.994;2023-02-23T15:53:54;6.10;99.90
17483;DHT22;8858;52.308;20.994;2023-02-23T15:56:25;6.10;99.90
17483;DHT22;8858;52.308;20.994;2023-02-23T15:58:56;6.00;99.90
17483;DHT22;8858;52.308;20.994;2023-02-23T16:01:28;5.90;99.90
17483;DHT22;8858;52.308;20.994;2023-02-23T16:04:01;5.90;99.90
17483;DHT22;8858;52.308;20.994;2023-02-23T16:06:35;5.80;99.90
17483;DHT22;8858;52.308;20.994;2023-02-23T16:09:23;5.80;99.90
17483;DHT22;8858;52.308;20.994;2023-02-23T16:11:54;5.70;99.90
17483;DHT22;8858;52.308;20.994;2023-02-23T16:14:23;5.60;99.90
17483;DHT22;8858;52.308;20.994;2023-02-23T16:16:57;5.60;99.90
17483;DHT22;8858;52.308;20.994;2023-02-23T16:19:37;5.50;99.90
17483;DHT22;8858;52.308;20.994;2023-02-23T16:22:20;5.50;99.90
17483;DHT22;8858;52.308;20.994;2023-02-23T16:25:02;5.50;99.90
17483;DHT22;8858;52.308;20.994;2023-02-23T16:27:32;5.40;99.90
17483;DHT22;8858;52.308;20.994;2023-02-23T16:30:15;5.40;99.90
17483;DHT22;8858;52.308;20.994;2023-02-23T16:32:45;5.40;99.90
17483;DHT22;8858;52.308;20.994;2023-02-23T16:35:16;5.30;99.90
17483;DHT22;8858;52.308;20.994;2023-02-23T16:37:57;5.30;99.90
17483;DHT22;8858;52.308;20.994;2023-02-23T16:40:29;5.30;99.90
17483;DHT22;8858;52.308;20.994;2023-02-23T16:42:57;5.30;99.90
17483;DHT22;8858;52.308;20.994;2023-02-23T16:45:26;5.30;99.90
17483;DHT22;8858;52.308;20.994;2023-02-23T16:47:58;5.30;99.90
17483;DHT22;8858;52.308;20.994;2023-02-23T16:50:33;5.30;99.90
17483;DHT22;8858;52.308;20.994;2023-02-23T16:53:08;5.20;99.90